Joseph F. Morrison — WDE4209 — position and weather

sailwx.info

Track history (hours):
 
Tides and Currents Weather Stations Pressure Air Temp Water Temp Dewpoint Dewpoint Depression Visibility Wind Speed Wind Dir Waves Ship Positions

Joseph F. Morrison

Owner: Blessey Enterprises, Inc., harahan, LA. More information available from US FCC via Universal Licensing System and Coast Guard Vessel Documentation Center.

Last reported at 2017-Dec-11 04:15 UTC. Time now 2017-Dec-14 15:13 UTC.
Position N 27°49' W 097°29'.

Length 84 m; draft 3 m.

Type: Towing. MMSI: 367350190.

Date/timePositionNaut miles runAvg speedWind from/ knotsBaromVisibWave heightAir tempDewpointWater temp
2017-Dec-11 04:15N 27°49' W 097°29'0 0.0
2017-Dec-11 04:00N 27°49' W 097°29'0 0.0
2017-Dec-11 03:29N 27°49' W 097°29'0 0.0
2017-Dec-11 02:59N 27°49' W 097°29'0 0.0
2017-Dec-11 02:30N 27°49' W 097°29'0 0.1
2017-Dec-11 01:58N 27°49' W 097°29'1 1.3
2017-Dec-11 00:54N 27°49' W 097°27'0 0.2
2017-Dec-11 00:29N 27°49' W 097°27'0 0.2
2017-Dec-10 23:59N 27°49' W 097°27'1 2.2
2017-Dec-10 23:29N 27°49' W 097°26'4 7.3
2017-Dec-10 22:59N 27°49' W 097°22'4 8.0
2017-Dec-10 22:30N 27°49' W 097°18'4 7.8
2017-Dec-10 22:00N 27°49' W 097°13'4 7.3
2017-Dec-10 21:29N 27°50' W 097°09'3 6.8
2017-Dec-10 21:00N 27°50' W 097°06'3 6.2
2017-Dec-10 20:29N 27°52' W 097°03'4 7.2
2017-Dec-10 19:59N 27°56' W 097°04'3 5.8
2017-Dec-10 19:29N 27°59' W 097°03'3 6.0
2017-Dec-10 19:00N 28°01' W 097°01'17 6.0
2017-Dec-10 16:11N 28°13' W 096°48'1 4.6
2017-Dec-10 15:54N 28°14' W 096°47'  
2017-Dec-07 12:40N 29°60' W 093°55'0 0.0
2017-Dec-07 12:24N 29°60' W 093°55'0 0.0
2017-Dec-07 11:56N 29°60' W 093°55'  
2017-Dec-03 06:21N 29°46' W 095°07'0 0.0
2017-Dec-03 05:39N 29°46' W 095°07'0 0.0
2017-Dec-03 05:22N 29°46' W 095°07'0 0.0
2017-Dec-03 04:00N 29°46' W 095°07'3 0.4
2017-Dec-02 20:33N 29°45' W 095°04'1 8.7
2017-Dec-02 20:27N 29°44' W 095°03'0 0.0
2017-Dec-01 21:56N 29°44' W 095°03'  
Track history (hours):
 
Tides and Currents Weather Stations Pressure Air Temp Water Temp Dewpoint Dewpoint Depression Visibility Wind Speed Wind Dir Waves Ship Positions

Joseph F. Morrison

Owner: Blessey Enterprises, Inc., harahan, LA. More information available from US FCC via Universal Licensing System and Coast Guard Vessel Documentation Center.

Last reported at 2017-Dec-11 04:15 UTC. Time now 2017-Dec-14 15:13 UTC.
Position N 27°49' W 097°29'.

Length 84 m; draft 3 m.

Type: Towing. MMSI: 367350190.

Date/timePositionNaut miles runAvg speedWind from/ knotsBaromVisibWave heightAir tempDewpointWater temp
2017-Dec-11 04:15N 27°49' W 097°29'0 0.0
2017-Dec-11 04:00N 27°49' W 097°29'0 0.0
2017-Dec-11 03:29N 27°49' W 097°29'0 0.0
2017-Dec-11 02:59N 27°49' W 097°29'0 0.0
2017-Dec-11 02:30N 27°49' W 097°29'0 0.1
2017-Dec-11 01:58N 27°49' W 097°29'1 1.3
2017-Dec-11 00:54N 27°49' W 097°27'0 0.2
2017-Dec-11 00:29N 27°49' W 097°27'0 0.2
2017-Dec-10 23:59N 27°49' W 097°27'1 2.2
2017-Dec-10 23:29N 27°49' W 097°26'4 7.3
2017-Dec-10 22:59N 27°49' W 097°22'4 8.0
2017-Dec-10 22:30N 27°49' W 097°18'4 7.8
2017-Dec-10 22:00N 27°49' W 097°13'4 7.3
2017-Dec-10 21:29N 27°50' W 097°09'3 6.8
2017-Dec-10 21:00N 27°50' W 097°06'3 6.2
2017-Dec-10 20:29N 27°52' W 097°03'4 7.2
2017-Dec-10 19:59N 27°56' W 097°04'3 5.8
2017-Dec-10 19:29N 27°59' W 097°03'3 6.0
2017-Dec-10 19:00N 28°01' W 097°01'17 6.0
2017-Dec-10 16:11N 28°13' W 096°48'1 4.6
2017-Dec-10 15:54N 28°14' W 096°47'  
2017-Dec-07 12:40N 29°60' W 093°55'0 0.0
2017-Dec-07 12:24N 29°60' W 093°55'0 0.0
2017-Dec-07 11:56N 29°60' W 093°55'  
2017-Dec-03 06:21N 29°46' W 095°07'0 0.0
2017-Dec-03 05:39N 29°46' W 095°07'0 0.0
2017-Dec-03 05:22N 29°46' W 095°07'0 0.0
2017-Dec-03 04:00N 29°46' W 095°07'3 0.4
2017-Dec-02 20:33N 29°45' W 095°04'1 8.7
2017-Dec-02 20:27N 29°44' W 095°03'0 0.0
2017-Dec-01 21:56N 29°44' W 095°03'  

Dump ship's entire track history